Time;durP1;ratioP1;P1;durP2;ratioP2;P2;SDS_P1;SDS_P2;PMS_P1;PMS_P2;Temp;Humidity;BMP_temperature;BMP_pressure;BME280_temperature;BME280_humidity;BME280_pressure;Samples;Min_cycle;Max_cycle;Signal;HPM_P1;HPM_P2
2021/09/06 00:00:40;;;;;;;9.48;5.43;;;;;;;14.67;81.48;98499.38;5012775;28;20079;-77
2021/09/06 00:03:06;;;;;;;8.95;4.75;;;;;;;14.48;81.88;98494.81;5030931;28;20057;-79
2021/09/06 00:05:31;;;;;;;7.22;4.63;;;;;;;14.39;82.75;98487.59;5030735;28;20076;-78
2021/09/06 00:07:56;;;;;;;9.38;5.32;;;;;;;14.53;82.31;98498.59;5031355;28;20482;-77
2021/09/06 00:10:31;;;;;;;7.90;5.85;;;;;;;14.31;83.20;98493.78;5030680;28;20033;-78
2021/09/06 00:12:57;;;;;;;8.57;4.93;;;;;;;14.29;83.65;98498.75;5031241;28;20092;-78
2021/09/06 00:15:23;;;;;;;8.68;6.20;;;;;;;14.27;83.67;98503.78;5030901;28;20061;-79
2021/09/06 00:17:49;;;;;;;8.10;5.00;;;;;;;14.47;83.59;98498.69;5030893;28;20596;-81
2021/09/06 00:20:14;;;;;;;12.13;5.50;;;;;;;14.39;83.72;98499.41;5030340;28;20054;-77
2021/09/06 00:22:41;;;;;;;8.05;5.22;;;;;;;14.36;83.71;98505.53;5030567;28;20052;-79
2021/09/06 00:25:07;;;;;;;9.88;5.78;;;;;;;14.28;83.77;98492.44;5030884;28;20029;-78
2021/09/06 00:27:32;;;;;;;7.25;5.82;;;;;;;14.23;83.97;98488.97;5030416;28;20534;-77
2021/09/06 00:29:58;;;;;;;7.85;6.03;;;;;;;14.10;84.52;98476.84;5031140;28;20528;-80
2021/09/06 00:32:23;;;;;;;12.63;5.82;;;;;;;14.31;84.15;98499.28;5031034;28;20442;-77
2021/09/06 00:34:48;;;;;;;8.93;6.00;;;;;;;14.34;83.64;98495.97;5031680;28;20053;-78
2021/09/06 00:37:14;;;;;;;8.90;5.50;;;;;;;14.11;85.00;98480.41;5017635;28;20026;-79
2021/09/06 00:39:39;;;;;;;8.05;5.40;;;;;;;13.99;85.72;98491.94;5033843;28;20049;-78
2021/09/06 00:42:05;;;;;;;9.35;5.90;;;;;;;14.13;85.63;98494.69;5032506;28;20043;-77
2021/09/06 00:44:30;;;;;;;7.93;5.25;;;;;;;14.09;86.27;98508.25;5031948;28;20033;-77
2021/09/06 00:46:59;;;;;;;6.65;4.85;;;;;;;14.00;86.82;98507.34;5013085;28;20045;-76
2021/09/06 00:49:25;;;;;;;10.40;5.32;;;;;;;13.83;87.55;98491.41;5030641;28;20493;-77
2021/09/06 00:51:51;;;;;;;6.35;4.82;;;;;;;13.83;87.86;98502.41;5012432;28;20055;-77
2021/09/06 00:54:17;;;;;;;9.18;5.38;;;;;;;13.72;89.08;98505.66;5012541;28;20398;-77
2021/09/06 00:56:43;;;;;;;9.88;5.97;;;;;;;13.60;89.68;98503.34;4999695;28;20497;-76
2021/09/06 00:59:09;;;;;;;6.85;5.65;;;;;;;13.50;90.46;98506.28;5033208;28;20056;-79
2021/09/06 01:01:34;;;;;;;11.27;6.20;;;;;;;13.59;90.24;98511.94;5012859;28;20029;-78
2021/09/06 01:03:59;;;;;;;12.45;6.45;;;;;;;13.39;91.13;98499.31;5030152;28;20497;-81
2021/09/06 01:06:25;;;;;;;8.60;5.82;;;;;;;13.46;91.21;98510.75;5030415;28;20501;-76
2021/09/06 01:08:50;;;;;;;17.52;7.70;;;;;;;13.36;91.20;98499.94;5030796;28;20080;-77
2021/09/06 01:11:16;;;;;;;8.45;6.45;;;;;;;13.54;90.50;98507.31;5031904;28;20033;-78
2021/09/06 01:13:41;;;;;;;9.65;7.05;;;;;;;13.46;90.82;98507.19;5034135;28;20446;-78
2021/09/06 01:16:10;;;;;;;10.05;7.15;;;;;;;13.66;90.06;98512.31;5034033;28;20021;-78
2021/09/06 01:18:36;;;;;;;15.25;7.25;;;;;;;13.68;89.74;98510.94;5033930;28;20033;-77
2021/09/06 01:21:01;;;;;;;11.45;7.38;;;;;;;13.53;90.66;98513.94;5033874;28;20033;-78
2021/09/06 01:23:27;;;;;;;11.65;7.20;;;;;;;13.61;90.35;98512.44;5033876;28;20032;-77
2021/09/06 01:25:52;;;;;;;9.65;6.57;;;;;;;13.61;90.47;98510.50;5033375;28;20137;-80
2021/09/06 01:28:18;;;;;;;9.35;7.05;;;;;;;13.64;90.46;98512.66;5033516;28;20036;-80
2021/09/06 01:30:44;;;;;;;11.68;7.60;;;;;;;13.52;90.93;98512.31;5016067;28;20025;-77
2021/09/06 01:33:10;;;;;;;9.70;6.78;;;;;;;13.43;91.73;98508.63;5033480;28;20029;-79
2021/09/06 01:35:35;;;;;;;16.55;7.28;;;;;;;13.31;92.25;98506.31;5033679;28;20025;-78
2021/09/06 01:38:01;;;;;;;10.23;6.55;;;;;;;13.27;92.79;98504.47;5034187;28;20398;-78
2021/09/06 01:40:26;;;;;;;8.23;6.57;;;;;;;13.39;92.51;98508.41;5033755;28;20057;-78
2021/09/06 01:42:52;;;;;;;10.88;6.90;;;;;;;13.46;91.84;98515.44;5033509;28;20028;-79
2021/09/06 01:45:18;;;;;;;11.70;7.50;;;;;;;13.28;92.33;98511.63;5033473;28;20033;-79
2021/09/06 01:47:43;;;;;;;9.57;7.20;;;;;;;13.23;93.01;98511.69;5033242;28;20104;-77
2021/09/06 01:50:09;;;;;;;9.63;7.00;;;;;;;13.15;93.23;98509.63;5033708;28;20084;-80
2021/09/06 01:52:35;;;;;;;9.35;6.68;;;;;;;13.03;93.65;98492.75;5033601;28;20032;-79
2021/09/06 01:55:00;;;;;;;12.02;6.57;;;;;;;13.08;93.54;98503.66;5033157;28;20067;-80
2021/09/06 01:57:26;;;;;;;8.23;6.32;;;;;;;13.27;92.32;98509.97;5033379;28;20040;-80
2021/09/06 01:59:51;;;;;;;10.48;7.05;;;;;;;13.27;91.84;98499.81;5015651;28;20041;-79
2021/09/06 02:02:16;;;;;;;11.30;6.90;;;;;;;13.18;92.58;98506.28;5033766;28;20021;-77
2021/09/06 02:04:42;;;;;;;9.50;7.05;;;;;;;13.26;92.09;98500.09;5024752;28;20026;-78
2021/09/06 02:07:07;;;;;;;9.80;7.60;;;;;;;13.16;92.57;98511.22;5022879;28;20029;-79
2021/09/06 02:09:33;;;;;;;10.20;6.90;;;;;;;13.04;93.81;98511.66;5033234;28;20479;-81
2021/09/06 02:11:59;;;;;;;14.05;6.88;;;;;;;13.02;93.98;98513.91;5033224;28;20030;-79
2021/09/06 02:14:24;;;;;;;10.10;7.13;;;;;;;12.98;94.39;98514.78;5032876;28;20105;-80
2021/09/06 02:16:50;;;;;;;8.98;6.85;;;;;;;12.99;94.28;98513.66;5032478;28;20535;-77
2021/09/06 02:19:15;;;;;;;11.52;6.32;;;;;;;12.95;94.88;98507.13;5032917;28;20037;-77
2021/09/06 02:21:41;;;;;;;11.27;6.35;;;;;;;13.02;94.79;98516.66;5014597;28;20466;-79
2021/09/06 02:24:06;;;;;;;9.45;6.93;;;;;;;13.06;93.79;98514.13;5033168;28;20532;-80
2021/09/06 02:26:33;;;;;;;10.70;6.63;;;;;;;12.93;94.46;98512.94;5032398;28;20030;-79
2021/09/06 02:29:00;;;;;;;9.50;6.82;;;;;;;12.94;94.31;98516.50;5014923;28;20171;-77
2021/09/06 02:31:25;;;;;;;10.77;7.03;;;;;;;12.67;95.07;98500.66;5032039;28;20033;-80
2021/09/06 02:33:51;;;;;;;12.80;7.95;;;;;;;12.61;96.00;98513.66;5032330;28;20099;-79
2021/09/06 02:36:16;;;;;;;10.43;6.25;;;;;;;12.58;96.76;98514.25;5032322;28;20060;-79
2021/09/06 02:38:41;;;;;;;14.15;6.95;;;;;;;12.44;98.44;98521.53;5032816;28;20057;-78
2021/09/06 02:41:07;;;;;;;10.23;7.10;;;;;;;12.36;99.10;98522.19;5032409;28;20047;-77
2021/09/06 02:43:32;;;;;;;7.63;6.50;;;;;;;12.35;99.11;98509.59;5014755;28;20030;-78
2021/09/06 02:45:58;;;;;;;12.70;6.38;;;;;;;12.62;97.62;98512.56;5032080;28;20037;-79
2021/09/06 02:48:23;;;;;;;9.93;7.38;;;;;;;12.43;98.47;98511.69;5014758;28;20025;-77
2021/09/06 02:50:49;;;;;;;10.63;6.68;;;;;;;12.32;98.99;98501.94;5032935;28;20079;-79
2021/09/06 02:53:14;;;;;;;7.32;5.93;;;;;;;12.56;97.79;98519.19;5019310;28;20381;-77
2021/09/06 02:55:39;;;;;;;10.38;5.50;;;;;;;12.54;97.84;98523.34;5032539;28;20029;-80
2021/09/06 02:58:05;;;;;;;9.10;7.25;;;;;;;12.72;97.21;98526.13;5014719;28;20036;-82
2021/09/06 03:00:30;;;;;;;9.10;6.60;;;;;;;12.66;97.39;98510.00;5032318;28;20026;-81
2021/09/06 03:02:56;;;;;;;9.45;6.22;;;;;;;12.69;96.39;98518.47;5014240;28;20021;-78
2021/09/06 03:05:21;;;;;;;11.07;6.50;;;;;;;12.56;97.40;98519.19;5031721;28;20064;-80
2021/09/06 03:07:47;;;;;;;8.82;6.13;;;;;;;12.68;96.78;98516.84;5014642;28;20029;-78
2021/09/06 03:10:12;;;;;;;9.93;6.28;;;;;;;12.50;97.64;98512.13;5014274;28;20029;-78
2021/09/06 03:12:38;;;;;;;10.75;7.00;;;;;;;12.64;97.25;98514.97;5014111;28;20029;-79
2021/09/06 03:15:04;;;;;;;7.60;6.53;;;;;;;12.43;97.93;98511.69;5013968;28;20025;-77
2021/09/06 03:17:29;;;;;;;8.57;6.07;;;;;;;12.33;98.81;98520.03;5013995;28;20036;-78
2021/09/06 03:19:55;;;;;;;10.48;7.35;;;;;;;12.40;98.69;98534.22;5032140;28;20030;-77
2021/09/06 03:22:20;;;;;;;11.93;6.65;;;;;;;12.33;98.92;98528.28;5039320;28;20031;-78
2021/09/06 03:24:46;;;;;;;7.90;6.28;;;;;;;12.42;98.64;98529.25;5045444;28;20014;-80
2021/09/06 03:27:12;;;;;;;13.02;6.90;;;;;;;12.33;98.13;98520.88;5044807;28;20037;-79
2021/09/06 03:29:37;;;;;;;11.85;7.03;;;;;;;12.35;98.03;98529.59;5024084;28;20021;-76
2021/09/06 03:32:03;;;;;;;7.82;6.00;;;;;;;12.31;98.05;98536.78;5037047;28;20030;-75
2021/09/06 03:34:28;;;;;;;8.43;6.22;;;;;;;12.35;98.44;98531.53;5031617;28;20167;-77
2021/09/06 03:36:54;;;;;;;14.25;5.95;;;;;;;12.38;97.84;98530.13;5031802;28;20025;-78
2021/09/06 03:39:19;;;;;;;14.68;6.82;;;;;;;12.41;98.15;98541.34;5032144;28;20405;-78
2021/09/06 03:41:47;;;;;;;7.05;5.85;;;;;;;12.43;97.63;98544.63;5031676;28;20028;-77
2021/09/06 03:44:12;;;;;;;9.73;5.85;;;;;;;12.30;98.16;98528.84;5031362;28;20056;-79
2021/09/06 03:46:38;;;;;;;11.40;7.78;;;;;;;12.08;99.17;98528.56;5031265;28;20119;-78
2021/09/06 03:49:03;;;;;;;9.18;6.32;;;;;;;12.15;99.37;98526.28;5013533;28;20132;-77
2021/09/06 03:51:28;;;;;;;6.85;5.45;;;;;;;12.22;99.55;98540.44;5013680;28;20474;-80
2021/09/06 03:53:54;;;;;;;8.40;6.88;;;;;;;12.36;98.28;98546.88;5031280;28;20025;-79
2021/09/06 03:56:19;;;;;;;13.48;6.70;;;;;;;12.15;99.07;98529.03;5031302;28;20026;-78
2021/09/06 03:58:45;;;;;;;10.70;6.78;;;;;;;12.31;98.46;98539.53;5031362;28;20029;-78
2021/09/06 04:01:10;;;;;;;12.27;6.53;;;;;;;12.45;98.44;98550.63;5031280;28;20221;-81
2021/09/06 04:03:36;;;;;;;8.90;6.25;;;;;;;12.48;98.02;98551.97;5013186;28;20041;-77
2021/09/06 04:06:02;;;;;;;9.38;6.53;;;;;;;12.48;97.80;98543.72;5031362;28;20640;-77
2021/09/06 04:08:28;;;;;;;8.82;7.13;;;;;;;12.39;96.86;98549.03;5031694;28;20029;-78
2021/09/06 04:10:53;;;;;;;8.93;6.30;;;;;;;12.45;97.54;98567.09;5031256;28;20108;-78
2021/09/06 04:13:19;;;;;;;13.35;6.97;;;;;;;12.46;97.85;98570.66;5013104;28;20455;-77
2021/09/06 04:15:47;;;;;;;11.27;6.80;;;;;;;12.50;97.36;98566.22;5013714;28;20029;-77
2021/09/06 04:18:13;;;;;;;12.80;6.78;;;;;;;12.60;96.98;98569.63;5035086;28;20097;-78
2021/09/06 04:20:38;;;;;;;8.00;6.00;;;;;;;12.36;97.34;98555.13;5047646;28;20068;-77
2021/09/06 04:23:04;;;;;;;9.23;6.90;;;;;;;12.17;98.30;98554.22;5033302;28;20442;-78
2021/09/06 04:25:29;;;;;;;7.85;5.75;;;;;;;12.34;97.95;98565.59;5031516;28;20041;-76
2021/09/06 04:27:55;;;;;;;10.50;6.78;;;;;;;12.31;98.64;98564.22;5031755;28;20108;-77
2021/09/06 04:30:20;;;;;;;9.40;6.90;;;;;;;12.23;98.53;98553.91;5015130;28;20029;-79
2021/09/06 04:32:45;;;;;;;10.93;6.55;;;;;;;12.21;98.67;98558.88;5014431;28;20014;-78
2021/09/06 04:35:11;;;;;;;10.20;7.38;;;;;;;12.27;98.48;98565.09;5014066;28;20144;-80
2021/09/06 04:37:36;;;;;;;9.50;6.53;;;;;;;12.24;98.88;98569.25;5030133;28;20083;-80
2021/09/06 04:40:03;;;;;;;10.68;6.47;;;;;;;12.11;99.57;98563.63;5010968;28;20030;-76
2021/09/06 04:42:28;;;;;;;11.10;6.15;;;;;;;12.12;99.19;98578.97;5010854;28;20045;-76
2021/09/06 04:44:54;;;;;;;9.15;6.30;;;;;;;12.13;99.36;98577.84;4993454;28;20022;-76
2021/09/06 04:47:20;;;;;;;10.63;6.28;;;;;;;12.11;99.52;98582.81;5002845;28;20034;-78
2021/09/06 04:49:45;;;;;;;10.32;7.40;;;;;;;12.13;99.41;98578.69;5016642;28;20029;-77
2021/09/06 04:52:12;;;;;;;6.93;6.13;;;;;;;12.12;98.77;98584.47;4997094;28;20394;-77
2021/09/06 04:54:37;;;;;;;11.38;6.40;;;;;;;12.10;98.86;98589.41;5015155;28;20033;-80
2021/09/06 04:57:03;;;;;;;11.80;6.70;;;;;;;12.17;98.50;98585.22;4997274;28;20033;-77
2021/09/06 04:59:29;;;;;;;8.25;6.18;;;;;;;12.34;97.64;98588.31;5013597;28;20033;-77
2021/09/06 05:01:55;;;;;;;9.20;6.93;;;;;;;12.67;95.60;98597.56;5016595;28;20042;-78
2021/09/06 05:04:20;;;;;;;10.05;6.45;;;;;;;12.61;95.42;98601.47;4996938;28;20565;-78
2021/09/06 05:06:45;;;;;;;7.78;5.65;;;;;;;12.62;96.04;98605.88;5014496;28;20109;-76
2021/09/06 05:09:11;;;;;;;8.50;6.50;;;;;;;12.78;94.81;98595.50;5014606;28;20029;-77
2021/09/06 05:11:36;;;;;;;9.90;6.97;;;;;;;12.74;94.85;98608.19;5014232;28;20025;-80
2021/09/06 05:14:02;;;;;;;18.17;8.13;;;;;;;12.81;94.57;98612.19;5014103;28;20073;-78
2021/09/06 05:16:27;;;;;;;14.18;8.40;;;;;;;12.72;94.85;98605.72;5014394;28;20442;-78
2021/09/06 05:18:53;;;;;;;14.32;8.10;;;;;;;12.78;94.81;98606.50;5014026;28;20030;-79
2021/09/06 05:21:19;;;;;;;19.25;7.35;;;;;;;12.92;94.34;98612.88;5014029;28;20080;-80
2021/09/06 05:23:44;;;;;;;9.48;6.82;;;;;;;13.15;92.81;98614.00;5014004;28;20046;-78
2021/09/06 05:26:10;;;;;;;14.57;8.98;;;;;;;13.11;92.63;98612.94;4996196;28;20129;-80
2021/09/06 05:28:35;;;;;;;13.75;7.78;;;;;;;13.15;92.65;98609.34;4997004;28;20695;-77
2021/09/06 05:31:03;;;;;;;16.38;9.27;;;;;;;13.15;92.57;98616.75;5015926;28;20022;-76
2021/09/06 05:33:29;;;;;;;22.08;9.52;;;;;;;13.26;92.81;98624.53;5013887;28;20064;-78
2021/09/06 05:35:55;;;;;;;15.10;8.88;;;;;;;13.21;92.63;98615.56;4995693;28;20669;-79
2021/09/06 05:38:20;;;;;;;14.30;9.48;;;;;;;13.38;91.96;98624.09;5017207;28;20046;-78
2021/09/06 05:40:46;;;;;;;17.92;8.10;;;;;;;13.30;91.75;98624.78;5014938;28;20026;-80
2021/09/06 05:43:11;;;;;;;13.23;7.78;;;;;;;13.76;90.46;98622.97;5015270;28;20061;-77
2021/09/06 05:45:37;;;;;;;10.45;7.38;;;;;;;13.67;89.20;98619.25;5014632;28;20124;-76
2021/09/06 05:48:03;;;;;;;15.00;8.52;;;;;;;13.78;88.43;98620.72;4996850;28;20030;-80
2021/09/06 05:50:32;;;;;;;13.05;7.85;;;;;;;13.76;89.15;98630.41;4996388;28;20029;-79
2021/09/06 05:52:57;;;;;;;17.00;8.38;;;;;;;13.73;88.86;98614.50;4996310;28;20041;-78
2021/09/06 05:55:23;;;;;;;17.65;7.90;;;;;;;13.75;88.85;98621.31;4995623;28;20038;-78
2021/09/06 05:57:48;;;;;;;13.10;8.38;;;;;;;14.07;87.35;98630.69;5012707;28;20033;-78
2021/09/06 06:00:14;;;;;;;13.25;8.52;;;;;;;14.05;87.44;98635.69;5014038;28;20022;-77
2021/09/06 06:02:40;;;;;;;14.80;8.35;;;;;;;14.27;86.31;98633.94;4995480;28;20096;-75
2021/09/06 06:05:06;;;;;;;12.57;8.20;;;;;;;14.49;85.64;98636.03;4975694;28;20399;-77
2021/09/06 06:07:33;;;;;;;14.40;7.82;;;;;;;14.87;83.63;98645.75;4994056;28;20074;-76
2021/09/06 06:09:58;;;;;;;11.80;8.85;;;;;;;14.70;83.92;98641.97;4976838;28;20026;-77
2021/09/06 06:12:27;;;;;;;15.75;7.82;;;;;;;14.74;83.37;98627.28;4975872;28;20391;-78
2021/09/06 06:14:54;;;;;;;19.05;9.13;;;;;;;14.91;83.04;98638.50;4993329;28;20181;-79
2021/09/06 06:17:20;;;;;;;18.05;8.77;;;;;;;14.95;83.46;98645.03;4978632;28;20030;-80
2021/09/06 06:19:46;;;;;;;28.63;9.32;;;;;;;14.99;82.69;98637.78;5011610;28;20044;-78
2021/09/06 06:22:11;;;;;;;12.60;8.40;;;;;;;15.25;81.60;98642.78;5008784;28;20022;-77
2021/09/06 06:24:37;;;;;;;18.17;8.25;;;;;;;15.22;80.81;98621.34;5011731;28;20029;-77
2021/09/06 06:27:04;;;;;;;16.67;9.32;;;;;;;15.31;80.14;98647.03;4993669;28;20121;-77
2021/09/06 06:29:29;;;;;;;17.63;9.48;;;;;;;15.63;80.35;98657.91;4993989;28;20022;-81
2021/09/06 06:31:56;;;;;;;20.60;10.18;;;;;;;15.54;79.16;98638.53;4976057;28;20488;-82
2021/09/06 06:34:21;;;;;;;14.65;9.20;;;;;;;15.43;79.49;98647.31;4998541;28;20030;-78
2021/09/06 06:36:47;;;;;;;14.95;9.00;;;;;;;15.74;77.95;98651.03;4993336;28;20040;-79
2021/09/06 06:39:12;;;;;;;14.88;9.07;;;;;;;15.76;78.09;98653.47;4977251;28;20511;-78
2021/09/06 06:41:38;;;;;;;15.32;9.48;;;;;;;15.93;77.41;98659.97;5000706;28;20034;-78
2021/09/06 06:44:04;;;;;;;13.77;8.20;;;;;;;15.76;77.71;98661.75;4993576;28;20022;-77
2021/09/06 06:46:30;;;;;;;20.92;9.27;;;;;;;16.11;77.03;98657.31;4975280;28;20506;-79
2021/09/06 06:48:55;;;;;;;15.82;9.27;;;;;;;16.22;75.71;98667.00;4993297;28;20026;-78
2021/09/06 06:51:21;;;;;;;14.98;9.38;;;;;;;16.33;75.50;98654.56;4975143;28;20045;-75
2021/09/06 06:53:46;;;;;;;17.15;8.82;;;;;;;16.24;75.25;98657.25;4992581;28;20054;-80
2021/09/06 06:56:12;;;;;;;13.57;7.43;;;;;;;16.40;74.27;98665.97;4992831;28;20077;-78
2021/09/06 06:58:38;;;;;;;11.20;7.47;;;;;;;16.47;73.66;98669.13;4993260;28;20443;-76
2021/09/06 07:01:03;;;;;;;19.00;8.45;;;;;;;16.84;72.51;98665.91;4997253;28;20030;-75
2021/09/06 07:03:29;;;;;;;19.05;7.97;;;;;;;17.16;71.12;98666.69;5010538;28;20036;-75
2021/09/06 07:05:56;;;;;;;10.52;7.82;;;;;;;17.38;70.33;98674.88;5012232;28;20060;-77
2021/09/06 07:08:21;;;;;;;14.82;7.85;;;;;;;17.51;69.28;98676.72;5011587;28;20121;-77
2021/09/06 07:10:47;;;;;;;19.88;7.72;;;;;;;17.59;68.31;98668.44;4994562;28;20112;-76
2021/09/06 07:13:12;;;;;;;13.27;7.88;;;;;;;17.88;68.03;98670.59;5011876;28;20034;-78
2021/09/06 07:15:38;;;;;;;11.23;7.50;;;;;;;18.08;66.01;98672.69;4994687;28;20048;-78
2021/09/06 07:18:07;;;;;;;11.80;5.82;;;;;;;17.62;66.33;98678.88;4993673;28;20030;-77
2021/09/06 07:20:32;;;;;;;9.88;5.97;;;;;;;17.52;66.79;98673.59;4993341;28;20391;-78
2021/09/06 07:22:58;;;;;;;9.85;6.82;;;;;;;18.19;65.18;98670.41;5010923;28;20026;-77
2021/09/06 07:25:23;;;;;;;11.73;6.55;;;;;;;18.36;64.27;98669.53;4993199;28;20037;-78
2021/09/06 07:27:49;;;;;;;8.93;6.22;;;;;;;18.83;62.71;98668.47;5009884;28;20053;-83
2021/09/06 07:30:14;;;;;;;10.63;5.93;;;;;;;18.32;63.95;98668.59;5010704;28;20026;-76
2021/09/06 07:32:40;;;;;;;10.82;6.43;;;;;;;19.16;62.24;98677.81;5010929;28;20057;-79
2021/09/06 07:35:06;;;;;;;10.63;5.82;;;;;;;19.03;60.74;98680.81;5010715;28;20084;-78
2021/09/06 07:37:31;;;;;;;14.93;6.40;;;;;;;19.38;59.61;98671.19;5010850;28;20100;-79
2021/09/06 07:39:57;;;;;;;10.18;5.55;;;;;;;19.58;59.42;98677.91;4993351;28;20061;-77
2021/09/06 07:42:23;;;;;;;15.40;6.25;;;;;;;20.78;56.26;98682.44;4993330;28;20091;-79
2021/09/06 07:44:49;;;;;;;11.35;5.32;;;;;;;21.49;53.42;98684.88;4993941;28;20029;-78
2021/09/06 07:47:14;;;;;;;9.93;6.85;;;;;;;22.09;52.00;98687.56;5011170;28;20808;-77
2021/09/06 07:49:41;;;;;;;13.27;6.97;;;;;;;22.09;51.16;98698.72;4992809;28;20036;-79
2021/09/06 07:52:08;;;;;;;12.35;6.13;;;;;;;22.32;50.31;98704.56;5010504;28;20018;-78
2021/09/06 07:54:42;;;;;;;6.75;5.28;;;;;;;22.78;48.99;98700.31;4999056;28;20029;-78
2021/09/06 07:57:07;;;;;;;12.23;6.10;;;;;;;23.27;48.42;98693.25;5012093;28;20116;-77
2021/09/06 07:59:32;;;;;;;8.20;4.93;;;;;;;23.66;47.45;98699.00;5011147;28;20104;-77
2021/09/06 08:01:58;;;;;;;11.85;5.90;;;;;;;23.79;46.29;98692.13;5011569;28;20153;-77
2021/09/06 08:04:26;;;;;;;8.48;4.80;;;;;;;24.10;45.74;98692.03;5011433;28;20112;-77
2021/09/06 08:06:51;;;;;;;12.98;4.72;;;;;;;24.18;44.80;98699.44;5011858;28;20036;-78
2021/09/06 08:09:16;;;;;;;12.63;7.03;;;;;;;23.23;46.40;98692.34;5015742;28;20026;-79
2021/09/06 08:11:46;;;;;;;10.60;5.53;;;;;;;23.59;46.24;98701.66;5018521;28;20029;-79
2021/09/06 08:14:12;;;;;;;8.32;4.90;;;;;;;24.02;45.00;98701.44;5015173;28;20434;-78
2021/09/06 08:16:38;;;;;;;9.45;4.78;;;;;;;24.28;44.28;98698.03;5011293;28;20479;-79
2021/09/06 08:19:03;;;;;;;8.25;3.92;;;;;;;24.79;42.85;98709.88;5010700;28;20503;-78
2021/09/06 08:21:30;;;;;;;8.73;4.63;;;;;;;25.70;41.77;98713.53;5010465;28;20026;-78
2021/09/06 08:23:57;;;;;;;9.48;5.43;;;;;;;26.07;39.87;98710.88;5010923;28;20064;-78
2021/09/06 08:26:23;;;;;;;9.60;4.90;;;;;;;25.85;40.58;98714.56;5011064;28;20080;-78
2021/09/06 08:28:49;;;;;;;7.22;4.13;;;;;;;27.28;37.51;98705.56;4992676;28;20037;-77
2021/09/06 08:31:14;;;;;;;6.40;4.70;;;;;;;26.97;37.39;98703.25;4992874;28;20030;-76
2021/09/06 08:33:41;;;;;;;6.88;4.38;;;;;;;26.00;39.25;98705.97;5010981;28;20030;-78
2021/09/06 08:36:09;;;;;;;9.93;5.03;;;;;;;26.12;39.66;98718.16;4997781;28;20052;-77
2021/09/06 08:38:34;;;;;;;11.13;4.65;;;;;;;26.59;38.48;98715.63;5018423;28;20123;-76
2021/09/06 08:41:02;;;;;;;6.50;5.00;;;;;;;26.85;38.20;98712.72;4993517;28;20471;-77
2021/09/06 08:43:29;;;;;;;10.05;5.22;;;;;;;27.35;37.63;98711.22;4993545;28;20053;-76
2021/09/06 08:45:55;;;;;;;10.25;6.03;;;;;;;27.06;37.60;98706.56;5011386;28;20029;-77
2021/09/06 08:48:20;;;;;;;6.10;4.80;;;;;;;27.04;37.45;98701.31;5014831;28;20118;-77
2021/09/06 08:50:46;;;;;;;18.05;5.63;;;;;;;27.00;37.41;98713.72;5024591;28;20034;-76
2021/09/06 08:53:12;;;;;;;7.78;4.65;;;;;;;26.42;38.69;98716.19;5011528;28;20017;-76
2021/09/06 08:55:39;;;;;;;5.88;5.28;;;;;;;28.05;35.82;98718.66;5010267;28;20041;-76
2021/09/06 08:58:04;;;;;;;6.85;5.25;;;;;;;28.02;35.76;98710.97;4992340;28;20407;-77
2021/09/06 09:00:31;;;;;;;8.73;5.13;;;;;;;28.45;34.80;98712.03;5024429;28;20030;-76
2021/09/06 09:02:57;;;;;;;7.50;4.82;;;;;;;29.18;33.07;98705.06;5013862;28;20036;-78
2021/09/06 09:05:22;;;;;;;10.10;4.97;;;;;;;30.03;31.88;98722.03;5023865;28;20029;-76
2021/09/06 09:07:58;;;;;;;5.88;4.72;;;;;;;29.84;32.02;98716.81;5024499;28;20029;-76
2021/09/06 09:10:30;;;;;;;9.93;5.03;;;;;;;29.29;32.62;98711.53;4993655;28;20022;-77
2021/09/06 09:13:04;;;;;;;8.93;4.72;;;;;;;27.76;35.30;98706.38;5011118;28;20495;-77
2021/09/06 09:15:31;;;;;;;6.93;5.18;;;;;;;29.31;33.06;98713.97;5010134;28;20117;-78
2021/09/06 09:17:58;;;;;;;6.07;4.45;;;;;;;27.97;35.05;98711.34;5010809;28;20032;-79
2021/09/06 09:20:45;;;;;;;8.40;4.40;;;;;;;27.58;36.60;98711.88;4992912;28;20040;-76
2021/09/06 09:23:10;;;;;;;10.95;4.72;;;;;;;27.44;36.42;98703.31;4993133;28;20107;-77
2021/09/06 09:25:37;;;;;;;11.80;5.22;;;;;;;27.51;36.19;98706.19;4992773;28;20034;-77
2021/09/06 09:28:03;;;;;;;11.15;5.38;;;;;;;27.78;35.52;98703.19;4992875;28;20061;-77
2021/09/06 09:30:32;;;;;;;6.47;4.97;;;;;;;26.83;36.85;98714.31;5010751;28;20057;-76
2021/09/06 09:33:12;;;;;;;9.38;6.32;;;;;;;27.87;35.44;98707.28;5013305;28;20430;-78
2021/09/06 09:35:38;;;;;;;8.23;4.97;;;;;;;28.25;35.14;98703.09;5014509;28;20084;-76
2021/09/06 09:38:09;;;;;;;7.15;4.60;;;;;;;28.93;34.05;98704.19;4995908;28;20139;-77
2021/09/06 09:40:36;;;;;;;7.30;4.60;;;;;;;28.02;34.77;98696.91;5014523;28;20033;-77
2021/09/06 09:43:03;;;;;;;5.60;4.50;;;;;;;29.49;32.78;98706.31;5014405;28;20184;-77
2021/09/06 09:45:29;;;;;;;5.60;4.53;;;;;;;30.13;31.92;98709.91;4996919;28;20092;-76
2021/09/06 09:47:57;;;;;;;10.43;4.57;;;;;;;29.39;32.59;98705.09;4996514;28;20026;-77
2021/09/06 09:50:24;;;;;;;9.07;5.03;;;;;;;29.43;32.87;98702.28;5014048;28;20163;-77
2021/09/06 09:52:55;;;;;;;7.35;4.82;;;;;;;30.21;31.61;98711.50;5013243;28;20040;-76
2021/09/06 09:55:21;;;;;;;12.02;5.63;;;;;;;31.69;28.90;98699.44;5013056;28;20045;-78
2021/09/06 09:57:47;;;;;;;6.18;5.03;;;;;;;30.92;29.65;98697.91;5012904;28;20033;-77
2021/09/06 10:00:14;;;;;;;8.00;4.90;;;;;;;28.83;33.43;98685.25;5013801;28;20034;-77
2021/09/06 10:02:45;;;;;;;10.60;4.88;;;;;;;30.37;30.97;98685.63;4995993;28;20371;-78
2021/09/06 10:05:12;;;;;;;7.30;5.72;;;;;;;28.49;34.50;98682.69;5013529;28;20026;-77
2021/09/06 10:07:41;;;;;;;8.82;5.10;;;;;;;28.78;33.73;98702.53;4995635;28;20036;-77
2021/09/06 10:10:37;;;;;;;9.32;4.93;;;;;;;29.83;32.61;98696.25;5013710;28;20026;-76
2021/09/06 10:13:03;;;;;;;10.10;5.63;;;;;;;28.00;35.64;98685.25;5012478;28;20081;-77
2021/09/06 10:15:28;;;;;;;7.25;4.50;;;;;;;30.59;31.64;98699.28;5013608;28;20014;-76
2021/09/06 10:17:53;;;;;;;6.75;3.95;;;;;;;28.09;34.89;98674.47;5012745;28;20487;-76
2021/09/06 10:20:21;;;;;;;5.38;4.70;;;;;;;28.46;34.80;98675.03;4995874;28;20491;-76
2021/09/06 10:23:00;;;;;;;6.53;5.28;;;;;;;28.24;34.95;98667.72;4995923;28;20037;-77
2021/09/06 10:25:29;;;;;;;7.13;4.72;;;;;;;28.91;34.04;98664.34;5013404;28;20382;-77
2021/09/06 10:28:05;;;;;;;6.53;4.53;;;;;;;30.43;32.11;98675.53;5013302;28;20030;-76
2021/09/06 10:30:41;;;;;;;8.70;4.38;;;;;;;29.57;33.46;98663.59;5013009;28;20422;-78
2021/09/06 10:33:23;;;;;;;7.30;4.65;;;;;;;30.05;32.01;98671.59;5013246;28;20033;-77
2021/09/06 10:35:48;;;;;;;6.57;4.63;;;;;;;29.57;33.34;98663.59;4999315;28;20568;-77
2021/09/06 10:38:15;;;;;;;5.65;4.28;;;;;;;28.75;34.26;98661.91;5013250;28;20471;-77
2021/09/06 10:40:43;;;;;;;6.80;4.65;;;;;;;28.99;33.69;98665.97;5013087;28;20029;-77
2021/09/06 10:43:21;;;;;;;5.68;4.70;;;;;;;31.09;30.80;98667.94;5011601;28;20032;-77
2021/09/06 10:45:49;;;;;;;5.45;4.55;;;;;;;29.74;32.80;98665.59;5011629;28;20030;-77
2021/09/06 10:48:21;;;;;;;6.82;4.80;;;;;;;29.92;32.53;98670.41;4994152;28;20407;-77
2021/09/06 10:50:48;;;;;;;7.65;4.75;;;;;;;27.88;35.56;98663.84;5012644;28;20033;-77
2021/09/06 10:53:23;;;;;;;6.10;4.10;;;;;;;27.57;36.55;98653.19;4995346;28;20109;-77
2021/09/06 10:55:50;;;;;;;;;;;;;;;29.24;33.58;98655.56;5014152;28;20200;-78
2021/09/06 10:58:15;;;;;;;7.13;4.18;;;;;;;28.23;35.46;98646.38;4996222;28;19976;-77
2021/09/06 11:00:48;;;;;;;7.13;5.00;;;;;;;28.00;36.19;98654.28;4995645;28;20157;-78
2021/09/06 11:03:14;;;;;;;5.43;4.57;;;;;;;26.57;38.55;98634.59;4994917;28;20495;-78
2021/09/06 11:05:50;;;;;;;5.85;4.70;;;;;;;26.62;38.51;98630.63;5000244;28;20109;-81
2021/09/06 11:08:16;;;;;;;9.82;6.80;;;;;;;25.51;41.16;98637.97;5026266;28;20030;-80
2021/09/06 11:10:42;;;;;;;11.20;4.78;;;;;;;25.46;40.70;98638.25;5012947;28;20052;-79
2021/09/06 11:13:08;;;;;;;7.47;5.63;;;;;;;24.91;42.44;98632.16;5011952;28;20104;-78
2021/09/06 11:15:35;;;;;;;9.10;4.85;;;;;;;25.35;41.47;98624.06;4994305;28;20550;-79
2021/09/06 11:18:04;;;;;;;7.25;4.88;;;;;;;25.25;41.69;98635.13;4994543;28;20537;-78
2021/09/06 11:20:34;;;;;;;7.57;4.72;;;;;;;24.98;42.20;98632.28;5012020;28;20109;-79
2021/09/06 11:23:05;;;;;;;5.50;4.25;;;;;;;24.79;42.88;98628.69;5012119;28;20025;-80
2021/09/06 11:25:33;;;;;;;8.80;4.80;;;;;;;24.86;42.72;98628.84;4994344;28;20026;-77